Terminal Aerodrome Forecast
Issued by NWS

Home | Current Version | Previous Version | Text Only | Print | Product List | Glossary On
Versions: 1 2 3 4 5 6 7 8 9 10 11 12 13 14
000
FTUS43 KGLD 211720
TAFMCK
TAF
KMCK 211720Z 2118/2218 28008KT P6SM FEW200
     FM212200 28008KT P6SM SCT050 BKN100
     FM220800 24005KT P6SM SCT070
     FM221000 29006KT P6SM SCT200=

USA.gov is the U.S. government's official web portal to all federal, state and local government web resources and services.